Milton, Florida
Current Conditions -  °F | °C
As of 9:56 AM on Sunday 21 Dec 2014 (Local Time) from KNDZ Reporting Station
Overcast Overcast  
Wind Chill: 58°   Ceiling: 1000
Heat Index: 58°   Visibility: 10mi
Dew Point: 52°   Wind: 9mph
Humidity: 81%   Direction: 80°E
Pressure: 30.12"   Gusts: NA
Location:  30.63°N, 87.04°W
Report Text: KNDZ 211556Z AUTO 08008KT 10SM OVC010 14/11 A3012 RMK AO2 SLP186 T01440111 $
Loading
Personal Weather Stations






























Interactive Weather Map New forecast layout! Learn more

10-Day Weather Forecast

Advertisements
Track Severe Weather on mobile